createdAt,value
2023-10-26T00:02:16.404Z,10.80
2023-10-26T00:04:43.271Z,10.80
2023-10-26T00:07:10.629Z,10.70
2023-10-26T00:09:37.313Z,10.70
2023-10-26T00:12:04.404Z,10.70
2023-10-26T00:14:31.242Z,10.70
2023-10-26T00:16:58.019Z,10.70
2023-10-26T00:19:24.814Z,10.70
2023-10-26T00:21:53.446Z,10.70
2023-10-26T00:24:20.229Z,10.60
2023-10-26T00:26:47.044Z,10.60
2023-10-26T00:29:13.883Z,10.70
2023-10-26T00:31:40.575Z,10.60
2023-10-26T00:34:07.434Z,10.60
2023-10-26T00:36:34.170Z,10.60
2023-10-26T00:39:01.286Z,10.60
2023-10-26T00:41:27.983Z,10.60
2023-10-26T00:43:54.809Z,10.60
2023-10-26T00:46:21.693Z,10.50
2023-10-26T00:48:48.611Z,10.50
2023-10-26T00:51:15.661Z,10.50
2023-10-26T00:53:42.822Z,10.40
2023-10-26T00:56:11.325Z,10.40
2023-10-26T00:58:38.800Z,10.40
2023-10-26T01:01:05.972Z,10.40
2023-10-26T01:03:33.763Z,10.40
2023-10-26T01:06:00.677Z,10.40
2023-10-26T01:08:27.413Z,10.40
2023-10-26T01:10:55.043Z,10.40
2023-10-26T01:13:21.803Z,10.40
2023-10-26T01:15:48.645Z,10.40
2023-10-26T01:18:16.830Z,10.30
2023-10-26T01:20:43.893Z,10.20
2023-10-26T01:23:11.232Z,10.20
2023-10-26T01:25:38.199Z,10.10
2023-10-26T01:28:05.445Z,10.10
2023-10-26T01:30:33.988Z,10.10
2023-10-26T01:33:01.242Z,10.10
2023-10-26T01:35:28.065Z,10.10
2023-10-26T01:37:54.814Z,10.10
2023-10-26T01:40:22.666Z,10.10
2023-10-26T01:42:49.508Z,10.10
2023-10-26T01:45:16.341Z,10.10
2023-10-26T01:47:43.873Z,10.10
2023-10-26T01:50:11.545Z,10.00
2023-10-26T01:52:38.332Z,9.90
2023-10-26T01:55:05.819Z,10.00
2023-10-26T01:57:32.513Z,10.00
2023-10-26T01:59:59.337Z,10.00
2023-10-26T02:02:26.229Z,10.00
2023-10-26T02:04:52.936Z,9.90
2023-10-26T02:07:19.849Z,9.90
2023-10-26T02:09:46.581Z,9.90
2023-10-26T02:12:13.647Z,9.80
2023-10-26T02:14:41.016Z,9.70
2023-10-26T02:17:07.747Z,9.70
2023-10-26T02:19:34.579Z,9.70
2023-10-26T02:22:01.454Z,9.60
2023-10-26T02:24:28.526Z,9.60
2023-10-26T02:26:55.858Z,9.60
2023-10-26T02:29:22.676Z,9.60
2023-10-26T02:31:51.018Z,9.60
2023-10-26T02:34:17.780Z,9.50
2023-10-26T02:36:44.492Z,9.50
2023-10-26T02:39:11.231Z,9.50
2023-10-26T02:41:38.502Z,9.60
2023-10-26T02:44:05.367Z,9.60
2023-10-26T02:46:32.110Z,9.50
2023-10-26T02:48:59.333Z,9.50
2023-10-26T02:51:26.154Z,9.50
2023-10-26T02:53:52.868Z,9.50
2023-10-26T02:56:21.044Z,9.50
2023-10-26T02:58:48.793Z,9.50
2023-10-26T03:01:15.513Z,9.50
2023-10-26T03:03:43.618Z,9.50
2023-10-26T03:06:10.725Z,9.50
2023-10-26T03:08:37.455Z,9.50
2023-10-26T03:11:04.433Z,9.40
2023-10-26T03:13:31.139Z,9.40
2023-10-26T03:15:58.524Z,9.30
2023-10-26T03:18:25.296Z,9.40
2023-10-26T03:20:52.176Z,9.30
2023-10-26T03:23:19.408Z,9.40
2023-10-26T03:25:46.383Z,9.30
2023-10-26T03:28:13.510Z,9.30
2023-10-26T03:30:40.209Z,9.30
2023-10-26T03:33:06.975Z,9.20
2023-10-26T03:35:36.945Z,9.30
2023-10-26T03:38:03.747Z,9.30
2023-10-26T03:40:33.372Z,9.30
2023-10-26T03:43:00.352Z,9.20
2023-10-26T03:45:29.712Z,9.20
2023-10-26T03:47:56.619Z,9.20
2023-10-26T03:50:23.943Z,9.20
2023-10-26T03:52:50.652Z,9.30
2023-10-26T03:55:18.548Z,9.20
2023-10-26T03:57:46.351Z,9.20
2023-10-26T04:00:13.787Z,9.30
2023-10-26T04:02:40.629Z,9.20
2023-10-26T04:05:07.708Z,9.20
2023-10-26T04:07:35.234Z,9.20
2023-10-26T04:10:06.389Z,9.20
2023-10-26T04:12:33.122Z,9.10
2023-10-26T04:14:59.862Z,9.10
2023-10-26T04:17:27.024Z,9.10
2023-10-26T04:19:53.806Z,9.10
2023-10-26T04:22:20.709Z,9.10
2023-10-26T04:24:47.462Z,9.10
2023-10-26T04:27:14.491Z,9.10
2023-10-26T04:29:41.309Z,9.10
2023-10-26T04:32:09.268Z,9.10
2023-10-26T04:34:36.081Z,9.10
2023-10-26T04:37:04.040Z,9.10
2023-10-26T04:39:30.899Z,9.10
2023-10-26T04:41:57.738Z,9.10
2023-10-26T04:44:24.620Z,9.10
2023-10-26T04:46:52.498Z,9.10
2023-10-26T04:49:20.174Z,9.10
2023-10-26T04:51:46.915Z,9.10
2023-10-26T04:54:13.647Z,9.10
2023-10-26T04:56:40.402Z,9.10
2023-10-26T04:59:07.093Z,9.00
2023-10-26T05:01:33.950Z,9.00
2023-10-26T05:04:00.734Z,9.00
2023-10-26T05:06:27.626Z,9.00
2023-10-26T05:08:54.520Z,9.10
2023-10-26T05:11:21.769Z,9.10
2023-10-26T05:13:49.970Z,9.10
2023-10-26T05:16:16.735Z,9.10
2023-10-26T05:18:43.507Z,9.10
2023-10-26T05:21:10.350Z,9.10
2023-10-26T05:23:38.391Z,9.10
2023-10-26T05:26:05.176Z,9.10
2023-10-26T05:28:31.939Z,9.10
2023-10-26T05:30:59.372Z,9.10
2023-10-26T05:33:26.586Z,9.10
2023-10-26T05:35:53.394Z,9.10
2023-10-26T05:38:20.961Z,9.10
2023-10-26T05:40:56.581Z,9.10
2023-10-26T05:43:26.252Z,9.00
2023-10-26T05:45:53.920Z,9.10
2023-10-26T05:48:20.888Z,9.10
2023-10-26T05:50:47.710Z,9.10
2023-10-26T05:53:14.451Z,9.10
2023-10-26T05:55:41.204Z,9.10
2023-10-26T05:58:10.194Z,9.10
2023-10-26T06:00:39.564Z,9.10
2023-10-26T06:03:06.590Z,9.20
2023-10-26T06:05:33.607Z,9.20
2023-10-26T06:08:00.294Z,9.10
2023-10-26T06:10:27.005Z,9.10
2023-10-26T06:12:53.719Z,9.10
2023-10-26T06:15:20.624Z,9.10
2023-10-26T06:17:47.380Z,9.10
2023-10-26T06:20:15.072Z,9.10
2023-10-26T06:22:43.059Z,9.20
2023-10-26T06:25:10.653Z,9.10
2023-10-26T06:27:37.558Z,9.20
2023-10-26T06:30:05.039Z,9.20
2023-10-26T06:32:31.781Z,9.20
2023-10-26T06:34:58.547Z,9.20
2023-10-26T06:37:25.365Z,9.20
2023-10-26T06:39:52.069Z,9.20
2023-10-26T06:42:18.926Z,9.20
2023-10-26T06:44:51.897Z,9.20
2023-10-26T06:47:18.834Z,9.20
2023-10-26T06:49:45.582Z,9.20
2023-10-26T06:52:12.347Z,9.20
2023-10-26T06:54:40.642Z,9.30
2023-10-26T06:57:07.663Z,9.30
2023-10-26T06:59:34.424Z,9.30
2023-10-26T07:02:07.380Z,9.30
2023-10-26T07:04:36.966Z,9.30
2023-10-26T07:07:04.314Z,9.30
2023-10-26T07:09:31.161Z,9.40
2023-10-26T07:11:57.886Z,9.40
2023-10-26T07:14:25.392Z,9.40
2023-10-26T07:16:52.216Z,9.40
2023-10-26T07:19:18.924Z,9.40
2023-10-26T07:21:45.731Z,9.40
2023-10-26T07:24:12.989Z,9.40
2023-10-26T07:26:39.828Z,9.40
2023-10-26T07:29:06.665Z,9.40
2023-10-26T07:31:33.676Z,9.40
2023-10-26T07:34:00.473Z,9.40
2023-10-26T07:36:31.373Z,9.40
2023-10-26T07:39:44.645Z,9.50
2023-10-26T07:42:06.984Z,9.50
2023-10-26T07:44:34.768Z,9.50
2023-10-26T07:47:02.094Z,9.40
2023-10-26T07:49:28.802Z,9.50
2023-10-26T07:51:56.069Z,9.50
2023-10-26T07:54:22.811Z,9.40
2023-10-26T07:56:50.289Z,9.40
2023-10-26T07:59:17.019Z,9.40
2023-10-26T08:01:44.108Z,9.50
2023-10-26T08:04:11.389Z,9.40
2023-10-26T08:06:38.122Z,9.50
2023-10-26T08:09:06.242Z,9.50
2023-10-26T08:11:32.974Z,9.60
2023-10-26T08:14:00.063Z,9.60
2023-10-26T08:16:39.159Z,9.70
2023-10-26T08:19:11.919Z,9.60
2023-10-26T08:21:38.732Z,9.60
2023-10-26T08:24:05.710Z,9.60
2023-10-26T08:26:32.916Z,9.70
2023-10-26T08:31:35.902Z,9.70
2023-10-26T08:34:02.936Z,9.70
2023-10-26T08:36:29.648Z,9.60
2023-10-26T08:38:56.502Z,9.60
2023-10-26T08:41:23.357Z,9.60
2023-10-26T08:43:50.392Z,9.60
2023-10-26T08:46:19.612Z,9.60
2023-10-26T08:48:49.336Z,9.70
2023-10-26T08:51:16.501Z,9.60
2023-10-26T08:53:43.497Z,9.70
2023-10-26T08:56:12.309Z,9.70
2023-10-26T08:58:39.583Z,9.70
2023-10-26T09:01:06.878Z,9.70
2023-10-26T09:03:37.385Z,9.70
2023-10-26T09:06:04.522Z,9.80
2023-10-26T09:08:32.131Z,9.80
2023-10-26T09:10:58.965Z,9.90
2023-10-26T09:13:30.232Z,9.90
2023-10-26T09:15:59.800Z,9.90
2023-10-26T09:18:28.435Z,9.90
2023-10-26T09:21:09.946Z,9.90
2023-10-26T09:23:41.147Z,9.90
2023-10-26T09:26:09.498Z,9.90
2023-10-26T09:28:54.546Z,9.70
2023-10-26T09:31:23.050Z,9.80
2023-10-26T09:33:50.812Z,9.80
2023-10-26T09:36:19.863Z,9.90
2023-10-26T09:38:48.719Z,10.00
2023-10-26T09:41:20.658Z,10.00
2023-10-26T09:43:48.205Z,10.00
2023-10-26T09:46:16.503Z,10.00
2023-10-26T09:48:43.624Z,10.00
2023-10-26T09:51:15.518Z,10.00
2023-10-26T09:53:44.931Z,9.90
2023-10-26T09:56:21.678Z,9.90
2023-10-26T09:58:49.278Z,9.80
2023-10-26T10:01:38.671Z,9.80
2023-10-26T10:04:07.118Z,9.90
2023-10-26T10:06:59.674Z,9.90
2023-10-26T10:09:28.207Z,10.00
2023-10-26T10:12:07.363Z,10.10
2023-10-26T10:14:49.702Z,10.10
2023-10-26T10:17:18.190Z,10.10
2023-10-26T10:19:48.602Z,10.10
2023-10-26T10:22:40.006Z,10.10
2023-10-26T10:25:12.954Z,10.10
2023-10-26T10:27:41.698Z,10.10
2023-10-26T10:30:14.606Z,10.10
2023-10-26T10:32:53.136Z,10.00
2023-10-26T10:35:23.109Z,10.20
2023-10-26T10:38:15.235Z,10.20
2023-10-26T10:41:02.805Z,10.20
2023-10-26T10:43:50.415Z,10.30
2023-10-26T10:46:28.179Z,10.20
2023-10-26T10:49:05.367Z,10.30
2023-10-26T10:51:40.856Z,10.30
2023-10-26T10:54:20.504Z,10.30
2023-10-26T10:56:56.955Z,10.40
2023-10-26T10:59:30.661Z,10.20
2023-10-26T11:02:14.211Z,10.20
2023-10-26T11:05:12.840Z,10.10
2023-10-26T11:07:44.981Z,10.10
2023-10-26T11:10:12.028Z,10.00
2023-10-26T11:12:38.853Z,10.00
2023-10-26T11:15:07.264Z,10.00
2023-10-26T11:17:35.050Z,10.10
2023-10-26T11:20:01.916Z,10.10
2023-10-26T11:22:29.230Z,10.10
2023-10-26T11:24:56.091Z,10.00
2023-10-26T11:27:23.328Z,10.10
2023-10-26T11:30:06.616Z,10.10
2023-10-26T11:32:34.020Z,10.00
2023-10-26T11:35:17.434Z,10.10
2023-10-26T11:37:46.714Z,10.10
2023-10-26T11:40:15.359Z,10.20
2023-10-26T11:42:49.193Z,10.20
2023-10-26T11:45:24.033Z,10.20
2023-10-26T11:47:55.773Z,10.20
2023-10-26T11:50:23.670Z,10.20
2023-10-26T11:52:52.146Z,10.20
2023-10-26T11:55:19.444Z,10.30
2023-10-26T11:57:47.183Z,10.30
2023-10-26T12:00:15.774Z,10.30
2023-10-26T12:02:43.631Z,10.30
2023-10-26T12:05:16.571Z,10.20
2023-10-26T12:07:49.988Z,10.10
2023-10-26T12:10:19.115Z,10.00
2023-10-26T12:12:46.773Z,10.00
2023-10-26T12:15:13.610Z,10.00
2023-10-26T12:17:40.542Z,10.10
2023-10-26T12:20:09.184Z,10.10
2023-10-26T12:22:36.546Z,10.10
2023-10-26T12:25:07.786Z,10.00
2023-10-26T12:28:18.068Z,10.20
2023-10-26T12:30:25.319Z,10.20
2023-10-26T12:32:52.093Z,10.30
2023-10-26T12:35:18.869Z,10.30
2023-10-26T12:37:46.024Z,10.30
2023-10-26T12:40:12.817Z,10.40
2023-10-26T12:42:40.520Z,10.40
2023-10-26T12:45:08.019Z,10.30
2023-10-26T12:47:34.781Z,10.20
2023-10-26T12:50:02.287Z,10.10
2023-10-26T12:52:29.044Z,10.00
2023-10-26T12:54:55.808Z,10.00
2023-10-26T12:57:22.600Z,10.10
2023-10-26T12:59:49.856Z,10.10
2023-10-26T13:02:16.668Z,10.10
2023-10-26T13:04:43.819Z,10.20
2023-10-26T13:07:10.906Z,10.20
2023-10-26T13:09:42.078Z,10.20
2023-10-26T13:12:09.618Z,10.30
2023-10-26T13:14:36.305Z,10.30
2023-10-26T13:17:05.664Z,10.40
2023-10-26T13:19:32.559Z,10.40
2023-10-26T13:21:59.426Z,10.30
2023-10-26T13:24:26.427Z,10.20
2023-10-26T13:26:53.255Z,10.10
2023-10-26T13:29:20.323Z,10.00
2023-10-26T13:31:47.038Z,10.00
2023-10-26T13:34:14.118Z,9.90
2023-10-26T13:36:40.848Z,10.00
2023-10-26T13:39:07.656Z,10.10
2023-10-26T13:41:34.426Z,10.10
2023-10-26T13:44:01.170Z,10.10
2023-10-26T13:46:29.588Z,10.00
2023-10-26T13:48:56.726Z,10.00
2023-10-26T13:51:23.732Z,9.90
2023-10-26T13:53:50.596Z,9.90
2023-10-26T13:56:17.468Z,9.90
2023-10-26T13:58:44.205Z,9.90
2023-10-26T14:01:14.910Z,10.00
2023-10-26T14:03:42.489Z,10.10
2023-10-26T14:06:10.747Z,10.10
2023-10-26T14:08:37.895Z,10.00
2023-10-26T14:11:05.028Z,10.00
2023-10-26T14:13:32.505Z,10.10
2023-10-26T14:15:59.632Z,10.20
2023-10-26T14:18:26.599Z,10.20
2023-10-26T14:20:53.400Z,10.30
2023-10-26T14:23:20.866Z,10.30
2023-10-26T14:25:47.859Z,10.30
2023-10-26T14:28:14.678Z,10.20
2023-10-26T14:30:41.434Z,10.20
2023-10-26T14:33:08.482Z,10.20
2023-10-26T14:35:35.264Z,10.10
2023-10-26T14:38:02.655Z,10.00
2023-10-26T14:40:30.273Z,10.00
2023-10-26T14:42:57.734Z,9.90
2023-10-26T14:45:26.306Z,10.00
2023-10-26T14:47:53.288Z,9.90
2023-10-26T14:50:20.087Z,10.00
2023-10-26T14:52:46.921Z,10.00
2023-10-26T14:55:14.009Z,10.10
2023-10-26T14:57:40.971Z,10.00
2023-10-26T15:00:08.473Z,10.10
2023-10-26T15:02:35.522Z,10.20
2023-10-26T15:05:02.466Z,10.30
2023-10-26T15:07:29.165Z,10.30
2023-10-26T15:10:23.854Z,10.30
2023-10-26T15:12:43.304Z,10.30
2023-10-26T15:15:10.293Z,10.30
2023-10-26T15:17:37.248Z,10.30
2023-10-26T15:20:04.520Z,10.30
2023-10-26T15:22:31.396Z,10.30
2023-10-26T15:24:58.297Z,10.40
2023-10-26T15:27:25.182Z,10.40
2023-10-26T15:29:51.917Z,10.40
2023-10-26T15:32:21.684Z,10.40
2023-10-26T15:34:48.573Z,10.30
2023-10-26T15:37:16.331Z,10.30
2023-10-26T15:39:44.632Z,10.40
2023-10-26T15:42:15.955Z,10.30
2023-10-26T15:44:46.624Z,10.20
2023-10-26T15:47:15.029Z,10.20
2023-10-26T15:49:41.767Z,10.30
2023-10-26T15:52:08.805Z,10.20
2023-10-26T15:54:36.006Z,10.20
2023-10-26T15:57:03.260Z,10.20
2023-10-26T15:59:30.061Z,10.20
2023-10-26T16:01:56.830Z,10.20
2023-10-26T16:04:24.033Z,10.20
2023-10-26T16:06:51.388Z,10.20
2023-10-26T16:09:18.431Z,10.30
2023-10-26T16:11:45.304Z,10.40
2023-10-26T16:14:12.433Z,10.40
2023-10-26T16:16:39.260Z,10.30
2023-10-26T16:19:06.379Z,10.30
2023-10-26T16:21:33.224Z,10.20
2023-10-26T16:24:00.042Z,10.20
2023-10-26T16:26:27.012Z,10.10
2023-10-26T16:28:56.532Z,10.10
2023-10-26T16:31:23.524Z,9.90
2023-10-26T16:33:50.387Z,9.70
2023-10-26T16:36:17.388Z,9.60
2023-10-26T16:38:44.172Z,9.50
2023-10-26T16:41:11.042Z,9.40
2023-10-26T16:43:37.944Z,9.20
2023-10-26T16:46:04.877Z,9.20
2023-10-26T16:48:31.689Z,9.10
2023-10-26T16:51:00.753Z,8.90
2023-10-26T16:53:31.756Z,8.80
2023-10-26T16:56:04.167Z,8.70
2023-10-26T16:58:32.746Z,8.60
2023-10-26T17:01:00.055Z,8.50
2023-10-26T17:03:28.133Z,8.40
2023-10-26T17:05:55.346Z,8.30
2023-10-26T17:08:22.274Z,8.40
2023-10-26T17:10:49.633Z,8.40
2023-10-26T17:13:17.370Z,8.30
2023-10-26T17:15:45.451Z,8.20
2023-10-26T17:18:12.301Z,8.30
2023-10-26T17:20:39.126Z,8.30
2023-10-26T17:23:05.871Z,8.40
2023-10-26T17:25:36.389Z,8.40
2023-10-26T17:28:03.953Z,8.30
2023-10-26T17:30:31.132Z,8.30
2023-10-26T17:32:58.275Z,8.20
2023-10-26T17:35:25.513Z,8.20
2023-10-26T17:37:54.278Z,8.20
2023-10-26T17:40:23.570Z,8.20
2023-10-26T17:42:50.491Z,8.10
2023-10-26T17:45:18.962Z,8.10
2023-10-26T17:47:46.195Z,8.10
2023-10-26T17:50:13.068Z,7.90
2023-10-26T17:52:42.753Z,7.90
2023-10-26T17:55:10.056Z,7.90
2023-10-26T17:57:37.828Z,7.70
2023-10-26T18:00:05.298Z,7.60
2023-10-26T18:02:39.675Z,7.70
2023-10-26T18:05:07.128Z,7.70
2023-10-26T18:07:34.789Z,7.80
2023-10-26T18:10:01.605Z,7.70
2023-10-26T18:12:28.492Z,7.70
2023-10-26T18:14:55.422Z,7.80
2023-10-26T18:17:24.528Z,7.70
2023-10-26T18:19:51.331Z,7.70
2023-10-26T18:22:18.105Z,7.60
2023-10-26T18:24:45.057Z,7.60
2023-10-26T18:27:12.428Z,7.60
2023-10-26T18:29:39.193Z,7.50
2023-10-26T18:32:06.181Z,7.50
2023-10-26T18:34:34.840Z,7.60
2023-10-26T18:37:02.671Z,7.50
2023-10-26T18:39:29.494Z,7.40
2023-10-26T18:41:56.827Z,7.40
2023-10-26T18:44:23.557Z,7.40
2023-10-26T18:46:50.333Z,7.50
2023-10-26T18:49:17.366Z,7.50
2023-10-26T18:51:44.232Z,7.50
2023-10-26T18:54:11.053Z,7.60
2023-10-26T18:56:38.236Z,7.60
2023-10-26T18:59:05.215Z,7.50
2023-10-26T19:01:32.010Z,7.50
2023-10-26T19:04:02.898Z,7.70
2023-10-26T19:06:31.253Z,7.70
2023-10-26T19:08:59.936Z,7.70
2023-10-26T19:11:27.023Z,7.80
2023-10-26T19:13:54.018Z,7.80
2023-10-26T19:16:21.294Z,7.70
2023-10-26T19:18:48.242Z,7.70
2023-10-26T19:21:15.211Z,7.80
2023-10-26T19:23:42.699Z,7.70
2023-10-26T19:26:10.907Z,7.70
2023-10-26T19:28:37.794Z,7.70
2023-10-26T19:31:05.666Z,7.70
2023-10-26T19:33:32.512Z,7.70
2023-10-26T19:35:59.231Z,7.70
2023-10-26T19:38:28.494Z,7.70
2023-10-26T19:40:55.414Z,7.70
2023-10-26T19:43:22.351Z,7.80
2023-10-26T19:45:49.625Z,7.70
2023-10-26T19:48:17.626Z,7.60
2023-10-26T19:50:44.384Z,7.50
2023-10-26T19:53:11.098Z,7.60
2023-10-26T19:55:40.245Z,7.60
2023-10-26T19:58:07.761Z,7.40
2023-10-26T20:00:34.833Z,7.20
2023-10-26T20:03:01.723Z,7.10
2023-10-26T20:05:29.504Z,7.10
2023-10-26T20:07:56.210Z,7.10
2023-10-26T20:10:23.072Z,7.10
2023-10-26T20:12:49.844Z,7.00
2023-10-26T20:15:16.870Z,7.00
2023-10-26T20:17:43.719Z,6.90
2023-10-26T20:20:11.425Z,7.00
2023-10-26T20:22:38.197Z,7.00
2023-10-26T20:25:05.518Z,7.00
2023-10-26T20:27:32.700Z,6.90
2023-10-26T20:29:59.659Z,6.80
2023-10-26T20:32:26.906Z,6.70
2023-10-26T20:34:53.624Z,6.60
2023-10-26T20:37:20.585Z,6.50
2023-10-26T20:39:47.557Z,6.40
2023-10-26T20:42:14.346Z,6.60
2023-10-26T20:44:41.068Z,6.40
2023-10-26T20:47:07.937Z,6.40
2023-10-26T20:49:34.971Z,6.30
2023-10-26T20:52:01.856Z,6.30
2023-10-26T20:54:28.793Z,6.20
2023-10-26T20:56:55.525Z,6.20
2023-10-26T20:59:22.725Z,6.20
2023-10-26T21:01:49.528Z,6.10
2023-10-26T21:04:16.756Z,6.10
2023-10-26T21:06:47.392Z,6.20
2023-10-26T21:09:15.418Z,6.10
2023-10-26T21:11:42.246Z,6.10
2023-10-26T21:14:09.861Z,6.10
2023-10-26T21:16:36.791Z,6.20
2023-10-26T21:19:03.868Z,6.30
2023-10-26T21:21:31.078Z,6.30
2023-10-26T21:23:57.890Z,6.20
2023-10-26T21:26:24.700Z,6.20
2023-10-26T21:28:55.135Z,6.00
2023-10-26T21:31:24.769Z,6.10
2023-10-26T21:33:52.587Z,6.20
2023-10-26T21:36:21.158Z,6.30
2023-10-26T21:38:49.590Z,6.20
2023-10-26T21:41:16.423Z,6.30
2023-10-26T21:43:43.135Z,6.30
2023-10-26T21:46:10.015Z,6.10
2023-10-26T21:48:37.274Z,6.00
2023-10-26T21:51:08.326Z,5.90
2023-10-26T21:53:35.209Z,5.90
2023-10-26T21:56:01.924Z,5.90
2023-10-26T21:58:28.648Z,6.00
2023-10-26T22:00:55.459Z,6.00
2023-10-26T22:03:25.201Z,5.80
2023-10-26T22:05:51.933Z,5.70
2023-10-26T22:08:18.809Z,5.70
2023-10-26T22:10:45.695Z,5.60
2023-10-26T22:13:13.126Z,5.50
2023-10-26T22:15:39.931Z,5.60
2023-10-26T22:18:07.041Z,5.50
2023-10-26T22:20:36.801Z,5.50
2023-10-26T22:23:07.194Z,5.60
2023-10-26T22:25:34.106Z,5.60
2023-10-26T22:28:00.860Z,5.60
2023-10-26T22:30:27.938Z,5.50
2023-10-26T22:32:54.858Z,5.50
2023-10-26T22:35:21.633Z,5.60
2023-10-26T22:37:48.543Z,5.70
2023-10-26T22:40:15.516Z,5.70
2023-10-26T22:42:42.532Z,5.70
2023-10-26T22:45:09.611Z,5.60
2023-10-26T22:47:36.970Z,5.40
2023-10-26T22:50:04.634Z,5.30
2023-10-26T22:52:31.419Z,5.30
2023-10-26T22:55:00.450Z,5.20
2023-10-26T22:57:27.732Z,5.20
2023-10-26T22:59:59.594Z,5.10
2023-10-26T23:02:26.472Z,5.10
2023-10-26T23:04:55.970Z,5.00
2023-10-26T23:07:22.774Z,5.10
2023-10-26T23:09:49.535Z,5.10
2023-10-26T23:12:16.426Z,5.10
2023-10-26T23:14:43.677Z,5.10
2023-10-26T23:17:11.615Z,5.10
2023-10-26T23:19:38.551Z,5.10
2023-10-26T23:22:09.880Z,5.20
2023-10-26T23:24:38.869Z,5.20
2023-10-26T23:27:06.696Z,5.10
2023-10-26T23:29:33.849Z,5.00
2023-10-26T23:32:00.632Z,4.90
2023-10-26T23:34:28.833Z,4.90
2023-10-26T23:36:56.274Z,5.00
2023-10-26T23:39:23.165Z,5.10
2023-10-26T23:41:49.946Z,5.10
2023-10-26T23:44:16.653Z,5.20
2023-10-26T23:46:43.354Z,5.30
2023-10-26T23:49:10.247Z,5.20
2023-10-26T23:51:37.059Z,5.30
2023-10-26T23:54:03.984Z,5.40
2023-10-26T23:56:30.651Z,5.40
2023-10-26T23:58:57.402Z,5.50
